createdAt,value
2018-01-14T00:00:06.355Z,3.20
2018-01-14T00:02:38.213Z,3.20
2018-01-14T00:05:06.344Z,3.30
2018-01-14T00:07:34.466Z,3.30
2018-01-14T00:10:03.090Z,3.30
2018-01-14T00:12:31.322Z,3.40
2018-01-14T00:14:59.481Z,3.50
2018-01-14T00:17:27.584Z,3.50
2018-01-14T00:19:55.730Z,3.40
2018-01-14T00:22:23.843Z,3.50
2018-01-14T00:24:52.796Z,3.40
2018-01-14T00:27:20.886Z,3.40
2018-01-14T00:29:49.017Z,3.40
2018-01-14T00:32:17.117Z,3.30
2018-01-14T00:34:45.253Z,3.30
2018-01-14T00:37:13.376Z,3.40
2018-01-14T00:39:41.511Z,3.50
2018-01-14T00:42:09.623Z,3.50
2018-01-14T00:44:37.765Z,3.60
2018-01-14T00:47:05.886Z,3.50
2018-01-14T00:49:34.795Z,3.10
2018-01-14T00:52:03.358Z,3.00
2018-01-14T00:54:31.578Z,2.90
2018-01-14T00:56:59.718Z,2.80
2018-01-14T00:59:29.105Z,2.70
2018-01-14T01:01:57.731Z,2.70
2018-01-14T01:04:25.840Z,2.80
2018-01-14T01:06:54.010Z,2.90
2018-01-14T01:09:22.114Z,2.90
2018-01-14T01:11:51.026Z,2.60
2018-01-14T01:14:19.155Z,2.50
2018-01-14T01:16:47.299Z,2.40
2018-01-14T01:19:15.402Z,2.50
2018-01-14T01:21:43.567Z,2.50
2018-01-14T01:24:11.687Z,2.60
2018-01-14T01:26:39.820Z,2.50
2018-01-14T01:29:07.933Z,2.60
2018-01-14T01:31:36.107Z,2.50
2018-01-14T01:34:04.215Z,2.30
2018-01-14T01:36:32.348Z,2.20
2018-01-14T01:39:00.466Z,2.10
2018-01-14T01:41:28.590Z,2.00
2018-01-14T01:43:57.491Z,1.90
2018-01-14T01:46:25.631Z,1.90
2018-01-14T01:48:53.742Z,1.90
2018-01-14T01:51:21.870Z,1.90
2018-01-14T01:53:49.988Z,1.80
2018-01-14T01:56:18.118Z,1.90
2018-01-14T01:58:46.214Z,2.00
2018-01-14T02:01:15.113Z,1.80
2018-01-14T02:03:43.238Z,1.80
2018-01-14T02:06:11.378Z,1.70
2018-01-14T02:08:39.481Z,1.60
2018-01-14T02:11:07.623Z,1.60
2018-01-14T02:13:35.741Z,1.60
2018-01-14T02:16:04.371Z,1.70
2018-01-14T02:18:33.236Z,1.60
2018-01-14T02:21:02.770Z,1.60
2018-01-14T02:23:30.898Z,1.60
2018-01-14T02:25:59.039Z,1.70
2018-01-14T02:28:27.160Z,1.80
2018-01-14T02:30:55.297Z,2.00
2018-01-14T02:33:23.422Z,2.10
2018-01-14T02:35:52.324Z,2.10
2018-01-14T02:38:20.430Z,2.10
2018-01-14T02:40:48.566Z,2.00
2018-01-14T02:43:16.673Z,2.10
2018-01-14T02:45:44.822Z,2.00
2018-01-14T02:48:12.921Z,2.00
2018-01-14T02:50:41.062Z,2.00
2018-01-14T02:53:09.223Z,1.90
2018-01-14T02:55:38.114Z,2.00
2018-01-14T02:58:07.003Z,2.10
2018-01-14T03:00:35.895Z,2.10
2018-01-14T03:03:04.786Z,2.20
2018-01-14T03:05:33.677Z,2.10
2018-01-14T03:08:02.971Z,2.10
2018-01-14T03:10:31.980Z,2.10
2018-01-14T03:13:00.078Z,2.10
2018-01-14T03:15:28.210Z,2.10
2018-01-14T03:17:57.126Z,2.40
2018-01-14T03:20:25.273Z,2.40
2018-01-14T03:22:54.144Z,2.50
2018-01-14T03:25:22.291Z,2.40
2018-01-14T03:27:50.394Z,2.40
2018-01-14T03:30:18.512Z,2.50
2018-01-14T03:32:46.656Z,2.60
2018-01-14T03:35:15.555Z,2.50
2018-01-14T03:37:44.528Z,2.50
2018-01-14T03:40:12.608Z,2.60
2018-01-14T03:42:40.745Z,2.60
2018-01-14T03:45:08.863Z,2.40
2018-01-14T03:47:37.018Z,2.30
2018-01-14T03:50:05.122Z,2.10
2018-01-14T03:52:33.252Z,2.10
2018-01-14T03:55:01.367Z,2.00
2018-01-14T03:57:29.527Z,1.90
2018-01-14T03:59:58.398Z,1.70
2018-01-14T04:02:26.546Z,1.70
2018-01-14T04:04:54.647Z,1.70
2018-01-14T04:07:22.772Z,1.60
2018-01-14T04:09:50.888Z,1.60
2018-01-14T04:12:19.032Z,1.60
2018-01-14T04:14:47.153Z,1.50
2018-01-14T04:17:16.068Z,1.70
2018-01-14T04:19:44.181Z,1.70
2018-01-14T04:22:12.308Z,1.70
2018-01-14T04:24:40.432Z,1.80
2018-01-14T04:27:08.576Z,1.80
2018-01-14T04:29:36.713Z,1.90
2018-01-14T04:32:05.729Z,1.90
2018-01-14T04:34:33.840Z,1.90
2018-01-14T04:37:02.356Z,1.90
2018-01-14T04:39:30.544Z,2.00
2018-01-14T04:41:59.463Z,2.10
2018-01-14T04:44:27.606Z,2.00
2018-01-14T04:46:56.509Z,2.10
2018-01-14T04:49:24.619Z,2.00
2018-01-14T04:51:52.761Z,2.20
2018-01-14T04:54:20.870Z,2.30
2018-01-14T04:56:49.013Z,2.30
2018-01-14T04:59:17.133Z,2.20
2018-01-14T05:01:45.259Z,2.20
2018-01-14T05:04:13.351Z,2.30
2018-01-14T05:06:41.492Z,2.40
2018-01-14T05:09:09.626Z,2.30
2018-01-14T05:11:37.748Z,2.30
2018-01-14T05:14:06.010Z,2.20
2018-01-14T05:16:34.129Z,2.20
2018-01-14T05:19:02.242Z,2.10
2018-01-14T05:21:31.138Z,2.10
2018-01-14T05:24:00.016Z,2.10
2018-01-14T05:26:28.934Z,2.20
2018-01-14T05:28:57.045Z,2.20
2018-01-14T05:31:25.178Z,2.20
2018-01-14T05:33:53.290Z,2.20
2018-01-14T05:36:21.411Z,2.10
2018-01-14T05:38:50.286Z,2.00
2018-01-14T05:41:18.412Z,2.00
2018-01-14T05:43:46.531Z,2.10
2018-01-14T05:46:14.665Z,2.10
2018-01-14T05:48:42.758Z,2.20
2018-01-14T05:51:10.892Z,2.00
2018-01-14T05:53:39.007Z,2.10
2018-01-14T05:56:07.140Z,2.10
2018-01-14T05:58:35.271Z,2.10
2018-01-14T06:01:03.834Z,2.10
2018-01-14T06:03:31.990Z,2.10
2018-01-14T06:06:00.101Z,2.20
2018-01-14T06:08:28.223Z,2.10
2018-01-14T06:10:56.331Z,2.20
2018-01-14T06:13:24.467Z,2.20
2018-01-14T06:15:52.592Z,2.30
2018-01-14T06:18:21.522Z,2.30
2018-01-14T06:20:49.631Z,2.30
2018-01-14T06:23:17.752Z,2.30
2018-01-14T06:25:45.871Z,2.30
2018-01-14T06:28:14.007Z,2.30
2018-01-14T06:30:42.137Z,2.20
2018-01-14T06:33:10.280Z,2.30
2018-01-14T06:35:38.437Z,2.40
2018-01-14T06:38:07.323Z,2.50
2018-01-14T06:40:35.439Z,2.50
2018-01-14T06:43:03.783Z,2.50
2018-01-14T06:45:31.924Z,2.60
2018-01-14T06:48:00.822Z,2.60
2018-01-14T06:50:28.931Z,2.60
2018-01-14T06:52:57.087Z,2.60
2018-01-14T06:55:25.223Z,2.60
2018-01-14T06:57:54.119Z,2.70
2018-01-14T07:00:22.984Z,2.60
2018-01-14T07:02:51.110Z,2.60
2018-01-14T07:05:19.234Z,2.60
2018-01-14T07:07:47.361Z,2.60
2018-01-14T07:10:15.465Z,2.60
2018-01-14T07:12:43.597Z,2.60
2018-01-14T07:15:11.704Z,2.60
2018-01-14T07:17:39.841Z,2.60
2018-01-14T07:20:07.945Z,2.60
2018-01-14T07:22:36.097Z,2.50
2018-01-14T07:25:04.332Z,2.60
2018-01-14T07:27:32.485Z,2.70
2018-01-14T07:30:00.592Z,2.70
2018-01-14T07:32:29.483Z,2.70
2018-01-14T07:34:58.359Z,2.70
2018-01-14T07:37:27.255Z,2.70
2018-01-14T07:39:56.131Z,2.70
2018-01-14T07:42:24.258Z,2.70
2018-01-14T07:44:52.361Z,2.80
2018-01-14T07:47:20.486Z,2.70
2018-01-14T07:49:48.597Z,2.70
2018-01-14T07:52:16.735Z,2.70
2018-01-14T07:54:44.838Z,2.70
2018-01-14T07:57:12.979Z,2.80
2018-01-14T07:59:41.082Z,2.70
2018-01-14T08:02:09.213Z,2.70
2018-01-14T08:04:38.082Z,2.80
2018-01-14T08:07:06.267Z,2.70
2018-01-14T08:09:35.137Z,2.90
2018-01-14T08:12:03.266Z,2.80
2018-01-14T08:14:31.373Z,2.90
2018-01-14T08:16:59.490Z,2.90
2018-01-14T08:19:28.357Z,3.10
2018-01-14T08:21:56.486Z,3.10
2018-01-14T08:24:24.588Z,3.10
2018-01-14T08:26:52.694Z,3.00
2018-01-14T08:29:20.981Z,3.00
2018-01-14T08:31:49.893Z,3.00
2018-01-14T08:34:18.751Z,3.00
2018-01-14T08:36:47.631Z,3.10
2018-01-14T08:39:15.769Z,3.10
2018-01-14T08:41:43.874Z,3.10
2018-01-14T08:44:12.010Z,3.10
2018-01-14T08:46:40.113Z,3.10
2018-01-14T08:49:08.230Z,3.20
2018-01-14T08:51:36.335Z,3.30
2018-01-14T08:54:04.464Z,3.40
2018-01-14T08:56:33.325Z,3.60
2018-01-14T08:59:01.532Z,3.60
2018-01-14T09:01:35.743Z,3.60
2018-01-14T09:04:05.915Z,3.70
2018-01-14T09:06:34.014Z,3.70
2018-01-14T09:09:02.381Z,3.70
2018-01-14T09:11:30.603Z,3.80
2018-01-14T09:13:58.730Z,3.80
2018-01-14T09:16:26.834Z,3.80
2018-01-14T09:18:57.162Z,3.80
2018-01-14T09:21:26.563Z,3.70
2018-01-14T09:23:55.558Z,3.60
2018-01-14T09:26:24.425Z,3.50
2018-01-14T09:28:52.560Z,3.50
2018-01-14T09:31:20.657Z,3.90
2018-01-14T09:33:48.780Z,4.10
2018-01-14T09:36:16.892Z,4.10
2018-01-14T09:38:45.769Z,3.90
2018-01-14T09:41:13.875Z,3.90
2018-01-14T09:43:42.005Z,3.70
2018-01-14T09:46:10.118Z,3.80
2018-01-14T09:48:38.258Z,3.90
2018-01-14T09:51:06.345Z,3.90
2018-01-14T09:53:34.468Z,3.80
2018-01-14T09:56:03.362Z,3.70
2018-01-14T09:58:32.257Z,3.70
2018-01-14T10:01:01.120Z,3.70
2018-01-14T10:03:29.336Z,3.60
2018-01-14T10:05:57.450Z,3.60
2018-01-14T10:08:25.583Z,3.60
2018-01-14T10:10:53.681Z,3.60
2018-01-14T10:13:21.809Z,3.60
2018-01-14T10:15:50.673Z,3.80
2018-01-14T10:18:18.819Z,3.80
2018-01-14T10:20:46.934Z,3.80
2018-01-14T10:23:15.075Z,3.70
2018-01-14T10:25:43.185Z,3.80
2018-01-14T10:28:12.085Z,3.80
2018-01-14T10:30:40.958Z,3.70
2018-01-14T10:33:09.079Z,3.70
2018-01-14T10:35:37.177Z,3.70
2018-01-14T10:38:05.304Z,3.70
2018-01-14T10:40:33.415Z,3.70
2018-01-14T10:43:01.624Z,3.60
2018-01-14T10:45:30.042Z,3.60
2018-01-14T10:47:58.164Z,3.50
2018-01-14T10:50:26.265Z,3.50
2018-01-14T10:52:55.192Z,3.40
2018-01-14T10:55:23.297Z,3.30
2018-01-14T10:57:52.224Z,3.20
2018-01-14T11:00:21.096Z,3.30
2018-01-14T11:02:49.226Z,3.20
2018-01-14T11:07:53.312Z,3.30
2018-01-14T11:10:22.176Z,3.30
2018-01-14T11:12:50.302Z,3.30
2018-01-14T11:15:18.405Z,3.30
2018-01-14T11:17:46.510Z,3.30
2018-01-14T11:20:15.085Z,3.30
2018-01-14T11:22:43.184Z,3.30
2018-01-14T11:25:11.318Z,3.30
2018-01-14T11:27:39.424Z,3.40
2018-01-14T11:30:08.316Z,3.30
2018-01-14T11:32:37.224Z,3.40
2018-01-14T11:35:05.434Z,3.40
2018-01-14T11:37:33.530Z,3.40
2018-01-14T11:40:01.667Z,3.50
2018-01-14T11:42:30.532Z,3.50
2018-01-14T11:44:58.657Z,3.50
2018-01-14T11:47:26.786Z,3.50
2018-01-14T11:49:54.914Z,3.50
2018-01-14T11:52:23.004Z,3.50
2018-01-14T11:54:51.142Z,3.50
2018-01-14T11:57:19.253Z,3.50
2018-01-14T11:59:48.136Z,3.70
2018-01-14T12:02:17.015Z,3.60
2018-01-14T12:04:45.954Z,3.70
2018-01-14T12:07:14.066Z,3.60
2018-01-14T12:09:42.188Z,3.70
2018-01-14T12:12:10.317Z,3.70
2018-01-14T12:14:38.432Z,3.60
2018-01-14T12:17:06.546Z,3.60
2018-01-14T12:19:34.680Z,3.60
2018-01-14T12:22:03.253Z,3.60
2018-01-14T12:24:32.133Z,3.60
2018-01-14T12:27:01.018Z,3.60
2018-01-14T12:29:29.160Z,3.60
2018-01-14T12:31:57.273Z,3.70
2018-01-14T12:34:38.942Z,3.60
2018-01-14T12:37:08.590Z,3.60
2018-01-14T12:39:36.999Z,3.60
2018-01-14T12:42:06.069Z,3.50
2018-01-14T12:44:34.349Z,3.60
2018-01-14T12:47:03.396Z,3.60
2018-01-14T12:49:31.777Z,3.60
2018-01-14T12:51:59.892Z,3.70
2018-01-14T12:54:37.409Z,3.70
2018-01-14T12:57:06.567Z,3.70
2018-01-14T12:59:51.085Z,3.80
2018-01-14T13:02:29.453Z,3.80
2018-01-14T13:05:00.145Z,3.80
2018-01-14T13:07:36.451Z,3.90
2018-01-14T13:10:09.668Z,3.80
2018-01-14T13:12:41.371Z,3.80
2018-01-14T13:15:10.710Z,3.80
2018-01-14T13:17:40.548Z,3.80
2018-01-14T13:20:09.631Z,3.90
2018-01-14T13:22:42.019Z,3.70
2018-01-14T13:25:10.690Z,3.60
2018-01-14T13:27:42.393Z,3.60
2018-01-14T13:30:15.375Z,3.60
2018-01-14T13:32:46.318Z,3.60
2018-01-14T13:35:15.222Z,3.60
2018-01-14T13:37:44.109Z,3.70
2018-01-14T13:40:13.006Z,3.60
2018-01-14T13:42:41.881Z,3.50
2018-01-14T13:45:10.027Z,3.50
2018-01-14T13:47:38.131Z,3.50
2018-01-14T13:50:07.018Z,3.50
2018-01-14T13:52:35.870Z,3.50
2018-01-14T13:55:04.012Z,3.50
2018-01-14T13:57:32.637Z,3.50
2018-01-14T14:00:00.803Z,3.40
2018-01-14T14:02:29.005Z,3.50
2018-01-14T14:04:57.142Z,3.60
2018-01-14T14:07:25.426Z,3.50
2018-01-14T14:09:53.651Z,3.50
2018-01-14T14:12:22.810Z,3.40
2018-01-14T14:14:50.933Z,3.40
2018-01-14T14:17:19.062Z,3.30
2018-01-14T14:19:47.186Z,3.30
2018-01-14T14:22:16.255Z,3.30
2018-01-14T14:24:45.782Z,3.20
2018-01-14T14:27:13.891Z,3.20
2018-01-14T14:29:42.025Z,3.10
2018-01-14T14:32:10.141Z,3.10
2018-01-14T14:34:38.286Z,3.10
2018-01-14T14:37:06.393Z,3.10
2018-01-14T14:39:34.957Z,3.10
2018-01-14T14:42:03.057Z,3.10
2018-01-14T14:44:31.185Z,3.00
2018-01-14T14:46:59.293Z,3.00
2018-01-14T14:49:27.442Z,3.00
2018-01-14T14:51:55.546Z,2.90
2018-01-14T14:54:23.825Z,2.90
2018-01-14T14:56:51.927Z,2.90
2018-01-14T14:59:20.066Z,2.80
2018-01-14T15:01:48.190Z,2.90
2018-01-14T15:04:17.095Z,2.80
2018-01-14T15:06:45.200Z,2.80
2018-01-14T15:09:13.339Z,2.70
2018-01-14T15:11:42.218Z,2.70
2018-01-14T15:14:11.124Z,2.70
2018-01-14T15:16:39.236Z,2.70
2018-01-14T15:19:07.363Z,2.70
2018-01-14T15:21:36.235Z,2.60
2018-01-14T15:24:04.699Z,2.60
2018-01-14T15:26:33.069Z,2.60
2018-01-14T15:29:01.253Z,2.60
2018-01-14T15:31:31.009Z,2.60
2018-01-14T15:33:59.143Z,2.50
2018-01-14T15:36:27.330Z,2.50
2018-01-14T15:38:55.619Z,2.50
2018-01-14T15:41:24.562Z,2.40
2018-01-14T15:43:52.679Z,2.40
2018-01-14T15:46:21.560Z,2.40
2018-01-14T15:48:49.732Z,2.40
2018-01-14T15:51:18.006Z,2.30
2018-01-14T15:53:46.201Z,2.30
2018-01-14T15:56:15.082Z,2.20
2018-01-14T15:58:43.281Z,2.20
2018-01-14T16:01:11.444Z,2.20
2018-01-14T16:03:40.612Z,2.30
2018-01-14T16:06:09.078Z,2.20
2018-01-14T16:08:37.194Z,2.20
2018-01-14T16:11:06.170Z,2.10
2018-01-14T16:13:34.265Z,2.10
2018-01-14T16:16:02.406Z,2.10
2018-01-14T16:18:30.512Z,2.00
2018-01-14T16:20:58.697Z,2.00
2018-01-14T16:23:26.819Z,2.00
2018-01-14T16:25:55.743Z,1.90
2018-01-14T16:28:24.745Z,1.90
2018-01-14T16:30:52.876Z,1.80
2018-01-14T16:33:20.986Z,1.90
2018-01-14T16:35:49.880Z,1.90
2018-01-14T16:38:18.796Z,1.90
2018-01-14T16:40:46.933Z,1.80
2018-01-14T16:43:16.285Z,1.90
2018-01-14T16:45:44.410Z,1.90
2018-01-14T16:48:13.302Z,1.90
2018-01-14T16:50:41.473Z,1.90
2018-01-14T16:53:10.355Z,1.90
2018-01-14T16:55:38.478Z,1.90
2018-01-14T16:58:06.633Z,1.90
2018-01-14T17:00:34.854Z,1.90
2018-01-14T17:03:03.520Z,1.90
2018-01-14T17:05:31.649Z,1.90
2018-01-14T17:08:02.082Z,1.90
2018-01-14T17:10:30.464Z,1.90
2018-01-14T17:12:58.573Z,1.90
2018-01-14T17:15:27.300Z,1.90
2018-01-14T17:17:55.452Z,1.90
2018-01-14T17:20:23.642Z,1.90
2018-01-14T17:22:52.558Z,1.90
2018-01-14T17:25:20.693Z,1.90
2018-01-14T17:27:48.879Z,1.90
2018-01-14T17:30:17.107Z,1.80
2018-01-14T17:32:45.358Z,1.80
2018-01-14T17:35:14.493Z,1.90
2018-01-14T17:37:42.711Z,1.80
2018-01-14T17:40:10.831Z,1.90
2018-01-14T17:42:38.959Z,1.90
2018-01-14T17:45:07.284Z,1.90
2018-01-14T17:47:35.421Z,1.90
2018-01-14T17:50:07.467Z,1.90
2018-01-14T17:52:35.701Z,1.90
2018-01-14T17:55:05.766Z,1.90
2018-01-14T17:57:33.927Z,1.90
2018-01-14T18:00:02.074Z,1.90
2018-01-14T18:02:35.823Z,1.90
2018-01-14T18:05:04.801Z,2.00
2018-01-14T18:07:33.985Z,1.90
2018-01-14T18:10:02.253Z,1.90
2018-01-14T18:12:30.380Z,1.90
2018-01-14T18:14:59.278Z,1.90
2018-01-14T18:17:28.161Z,1.90
2018-01-14T18:19:57.061Z,2.00
2018-01-14T18:22:25.949Z,1.90
2018-01-14T18:24:54.067Z,1.90
2018-01-14T18:27:22.203Z,1.90
2018-01-14T18:29:50.649Z,1.90
2018-01-14T18:32:18.993Z,1.90
2018-01-14T18:34:46.978Z,1.80
2018-01-14T18:37:15.206Z,1.80
2018-01-14T18:39:43.588Z,1.90
2018-01-14T18:42:11.741Z,1.90
2018-01-14T18:44:41.845Z,1.90
2018-01-14T18:47:09.992Z,2.00
2018-01-14T18:49:38.417Z,1.90
2018-01-14T18:52:07.321Z,1.90
2018-01-14T18:54:35.545Z,1.90
2018-01-14T18:57:03.909Z,1.90
2018-01-14T18:59:32.175Z,1.90
2018-01-14T19:02:01.142Z,1.80
2018-01-14T19:04:29.536Z,1.90
2018-01-14T19:06:57.737Z,1.80
2018-01-14T19:09:27.150Z,1.80
2018-01-14T19:11:55.278Z,1.80
2018-01-14T19:14:23.400Z,1.80
2018-01-14T19:16:51.525Z,1.70
2018-01-14T19:19:19.716Z,1.80
2018-01-14T19:21:47.881Z,1.80
2018-01-14T19:24:16.006Z,1.70
2018-01-14T19:26:44.197Z,1.70
2018-01-14T19:29:13.086Z,1.60
2018-01-14T19:31:41.289Z,1.60
2018-01-14T19:34:09.502Z,1.60
2018-01-14T19:36:37.846Z,1.60
2018-01-14T19:39:05.953Z,1.60
2018-01-14T19:41:34.466Z,1.60
2018-01-14T19:44:03.017Z,1.60
2018-01-14T19:46:31.710Z,1.60
2018-01-14T19:49:00.913Z,1.50
2018-01-14T19:51:29.882Z,1.50
2018-01-14T19:53:58.093Z,1.50
2018-01-14T19:56:26.864Z,1.50
2018-01-14T19:58:55.378Z,1.50
2018-01-14T20:01:23.819Z,1.50
2018-01-14T20:03:51.919Z,1.50
2018-01-14T20:06:20.123Z,1.40
2018-01-14T20:08:48.262Z,1.40
2018-01-14T20:11:16.449Z,1.40
2018-01-14T20:13:44.563Z,1.40
2018-01-14T20:16:12.869Z,1.40
2018-01-14T20:18:40.983Z,1.40
2018-01-14T20:21:09.905Z,1.40
2018-01-14T20:23:38.035Z,1.40
2018-01-14T20:26:06.183Z,1.40
2018-01-14T20:28:34.500Z,1.40
2018-01-14T20:31:03.419Z,1.40
2018-01-14T20:33:31.565Z,1.30
2018-01-14T20:36:00.462Z,1.30
2018-01-14T20:38:28.617Z,1.30
2018-01-14T20:40:56.752Z,1.30
2018-01-14T20:43:24.898Z,1.30
2018-01-14T20:45:53.036Z,1.30
2018-01-14T20:48:22.386Z,1.30
2018-01-14T20:50:50.640Z,1.30
2018-01-14T20:53:18.966Z,1.40
2018-01-14T20:55:47.122Z,1.40
2018-01-14T20:58:15.291Z,1.40
2018-01-14T21:00:43.479Z,1.40
2018-01-14T21:03:11.666Z,1.40
2018-01-14T21:05:39.854Z,1.40
2018-01-14T21:08:08.023Z,1.40
2018-01-14T21:10:36.320Z,1.40
2018-01-14T21:13:05.179Z,1.40
2018-01-14T21:15:33.296Z,1.40
2018-01-14T21:18:02.746Z,1.40
2018-01-14T21:20:30.991Z,1.40
2018-01-14T21:22:59.413Z,1.40
2018-01-14T21:25:28.399Z,1.40
2018-01-14T21:27:56.542Z,1.40
2018-01-14T21:30:24.675Z,1.40
2018-01-14T21:32:52.823Z,1.40
2018-01-14T21:35:20.932Z,1.40
2018-01-14T21:37:49.873Z,1.50
2018-01-14T21:40:18.391Z,1.50
2018-01-14T21:42:46.523Z,1.50
2018-01-14T21:45:14.635Z,1.50
2018-01-14T21:47:44.395Z,1.50
2018-01-14T21:50:12.514Z,1.40
2018-01-14T21:52:40.654Z,1.40
2018-01-14T21:55:09.535Z,1.30
2018-01-14T21:57:37.673Z,1.30
2018-01-14T22:00:05.863Z,1.30
2018-01-14T22:02:39.860Z,1.20
2018-01-14T22:05:07.979Z,1.20
2018-01-14T22:07:36.115Z,1.20
2018-01-14T22:10:04.209Z,1.20
2018-01-14T22:12:32.349Z,1.20
2018-01-14T22:15:00.460Z,1.20
2018-01-14T22:17:28.594Z,1.30
2018-01-14T22:19:56.702Z,1.30
2018-01-14T22:22:24.847Z,1.30
2018-01-14T22:24:53.024Z,1.30
2018-01-14T22:27:21.942Z,1.30
2018-01-14T22:29:50.067Z,1.30
2018-01-14T22:32:18.204Z,1.30
2018-01-14T22:34:46.308Z,1.30
2018-01-14T22:37:14.444Z,1.30
2018-01-14T22:39:42.567Z,1.30
2018-01-14T22:42:10.721Z,1.30
2018-01-14T22:44:38.838Z,1.40
2018-01-14T22:47:07.743Z,1.40
2018-01-14T22:49:35.866Z,1.40
2018-01-14T22:52:04.450Z,1.40
2018-01-14T22:54:32.571Z,1.40
2018-01-14T22:57:00.715Z,1.40
2018-01-14T22:59:28.826Z,1.40
2018-01-14T23:01:56.985Z,1.40
2018-01-14T23:04:25.883Z,1.50
2018-01-14T23:06:54.792Z,1.40
2018-01-14T23:09:22.927Z,1.40
2018-01-14T23:11:51.030Z,1.50
2018-01-14T23:14:19.179Z,1.50
2018-01-14T23:16:48.069Z,1.40
2018-01-14T23:19:16.204Z,1.40
2018-01-14T23:21:44.320Z,1.50
2018-01-14T23:24:13.222Z,1.50
2018-01-14T23:26:42.099Z,1.50
2018-01-14T23:29:11.022Z,1.60
2018-01-14T23:31:39.136Z,1.60
2018-01-14T23:34:07.275Z,1.60
2018-01-14T23:36:36.155Z,1.60
2018-01-14T23:39:04.288Z,1.60
2018-01-14T23:41:32.401Z,1.60
2018-01-14T23:44:00.529Z,1.60
2018-01-14T23:46:28.640Z,1.70
2018-01-14T23:48:56.775Z,1.70
2018-01-14T23:51:25.775Z,1.70
2018-01-14T23:53:53.897Z,1.70
2018-01-14T23:56:22.780Z,1.70
2018-01-14T23:58:50.920Z,1.70
